SV1LH-1 Melissia GR current weather conditions

sailwx.info

Wind from 112 at 6 knots gusting 11

Air temperature 15.6° C
Dewpoint 2.0° C

Last reported at 2015-Apr-02 08:51 UTC.
Time now 2015-Apr-02 09:45 UTC

Location: N 38°03' E 023°51'.
View on Google Maps.

See reports from other nearby stations

  
Tides and Currents Weather Stations Pressure Air Temp Water Temp Dewpoint Dewpoint Depression Visibility Wind Speed Wind Dir Waves Ship Positions
date/time (UTC)wind fromknots sea level pressurealtimeterstation pressurevisibilityair tempwater tempwave heightnotes
2015-Apr-02 08:51 112 6 gusting 11 15.6
2015-Apr-02 08:46 045 13 gusting 17 15.6
2015-Apr-02 08:41 16.1
2015-Apr-02 08:36 022 8 gusting 14 16.1
2015-Apr-02 08:31 067 11 gusting 15 15.6
2015-Apr-02 08:26 045 9 gusting 13 15.6
2015-Apr-02 08:21 067 10 gusting 13 16.1
2015-Apr-02 08:16 15.6
2015-Apr-02 08:11 045 6 gusting 11 15.0
2015-Apr-02 08:06 022 9 gusting 16 15.6
2015-Apr-02 08:01 045 10 gusting 14 15.6
2015-Apr-02 07:56 045 5 gusting 11 15.6
2015-Apr-02 07:51 15.0
2015-Apr-02 07:46 15.0
2015-Apr-02 07:41 022 11 gusting 17 15.0
2015-Apr-02 07:36 15.0
2015-Apr-02 07:31 022 11 gusting 18 15.0
2015-Apr-02 07:26 022 9 gusting 17 15.0
2015-Apr-02 07:21 15.0
2015-Apr-02 07:16 045 13 gusting 17 15.0
2015-Apr-02 07:11 022 12 gusting 20 15.0
2015-Apr-02 07:06 15.0
2015-Apr-02 07:01 022 7 gusting 10 15.0
2015-Apr-02 06:56 045 7 gusting 13 15.0
2015-Apr-02 06:51 022 7 gusting 10 15.6
2015-Apr-02 06:46 337 5 gusting 7 15.6
2015-Apr-02 06:41 045 7 gusting 11 15.0
2015-Apr-02 06:36 045 7 gusting 11 15.0
2015-Apr-02 06:31 15.6
2015-Apr-02 06:26 045 6 gusting 9 15.0
2015-Apr-02 06:21 15.0
2015-Apr-02 06:16 022 6 gusting 9 15.0
2015-Apr-02 06:11 14.4
2015-Apr-02 06:06 045 7 gusting 11 15.0
2015-Apr-02 06:01 315 3 gusting 7 15.0
2015-Apr-02 05:56 15.0
2015-Apr-02 05:51 14.4
2015-Apr-02 05:46 315 4 gusting 7 14.4
2015-Apr-02 05:41 14.4
2015-Apr-02 05:36 022 5 gusting 7 13.9
2015-Apr-02 05:31 337 4 gusting 7 13.9
2015-Apr-02 05:26 022 6 gusting 12 13.9
2015-Apr-02 05:21 315 4 gusting 6 13.3
2015-Apr-02 05:16 022 6 gusting 8 13.3
2015-Apr-02 05:11 12.8
2015-Apr-02 05:06 292 8 gusting 14 12.8
2015-Apr-02 05:01 090 6 gusting 9 12.2
2015-Apr-02 04:56 12.2
2015-Apr-02 04:51 11.7
2015-Apr-02 04:46 045 5 gusting 6 11.1
2015-Apr-02 04:41 045 4 gusting 6 11.1
2015-Apr-02 04:36 045 5 gusting 10 10.6
2015-Apr-02 04:31 022 8 gusting 11 10.6
2015-Apr-02 04:26 045 7 gusting 12 10.6
2015-Apr-02 04:21 022 9 gusting 12 10.0
2015-Apr-02 04:16 045 6 gusting 10 10.0
2015-Apr-02 04:11 10.0
2015-Apr-02 04:06 045 10 gusting 16 10.0
2015-Apr-02 04:01 10.0
2015-Apr-02 03:56 022 5 gusting 13 10.0
2015-Apr-02 03:51 067 6 gusting 10 10.0
2015-Apr-02 03:46 10.0
2015-Apr-02 03:41 022 10 gusting 15 10.0
2015-Apr-02 03:36 10.6
2015-Apr-02 03:31 045 12 gusting 16 10.6
2015-Apr-02 03:26 11.1
2015-Apr-02 03:21 022 7 gusting 11 11.1
2015-Apr-02 03:16 022 8 gusting 16 11.1
2015-Apr-02 03:11 11.1
2015-Apr-02 03:06 022 9 gusting 13 11.1
2015-Apr-02 03:01 157 5 gusting 7 11.7
2015-Apr-02 02:56 022 2 gusting 4 11.7
2015-Apr-02 02:51 337 4 gusting 5 11.7
2015-Apr-02 02:46 11.7
2015-Apr-02 02:41 022 4 gusting 5 11.7
2015-Apr-02 02:36 11.7
2015-Apr-02 02:31 022 1 gusting 1 11.7
2015-Apr-02 02:26 022 1 gusting 1 12.2
2015-Apr-02 02:21 12.2
2015-Apr-02 02:16 067 1 gusting 1 12.2
2015-Apr-02 02:11 12.2
2015-Apr-02 02:06 045 4 gusting 5 12.2
2015-Apr-02 02:01 315 1 gusting 3 12.2
2015-Apr-02 01:56 12.2
2015-Apr-02 01:51 067 4 gusting 6 11.7
2015-Apr-02 01:46 11.7
2015-Apr-02 01:41 337 3 gusting 4 11.7
2015-Apr-02 01:36 11.7
2015-Apr-02 01:31 11.1
2015-Apr-02 01:26 045 0 gusting 1 11.1
2015-Apr-02 01:21 067 0 gusting 1 11.1
2015-Apr-02 01:16 11.7
2015-Apr-02 01:11 022 11.7
2015-Apr-02 01:06 315 0 gusting 1 11.7
2015-Apr-02 01:01 315 0 gusting 1 11.7
2015-Apr-02 00:56 11.7
2015-Apr-02 00:51 11.1
2015-Apr-02 00:46 11.1
2015-Apr-02 00:41 10.6
2015-Apr-02 00:36 10.6
2015-Apr-02 00:31 337 0 gusting 2 10.0
2015-Apr-02 00:26 315 0 gusting 1 10.0
2015-Apr-02 00:21 9.4
2015-Apr-02 00:16 9.4
2015-Apr-02 00:11 8.9
2015-Apr-02 00:06 022 8.9
2015-Apr-02 00:01 067 8.9
2015-Apr-01 23:56 045 9.4
2015-Apr-01 23:51 9.4
2015-Apr-01 23:46 090 1 gusting 2 9.4
2015-Apr-01 23:41 112 1 gusting 1 9.4
2015-Apr-01 23:36 112 1 gusting 2 9.4
2015-Apr-01 23:31 067 9.4
2015-Apr-01 23:26 045 10.0
2015-Apr-01 23:21 292 10.0
2015-Apr-01 23:16 112 0 gusting 1 10.0
2015-Apr-01 23:11 022 0 gusting 1 10.0
2015-Apr-01 23:06 045 10.0
2015-Apr-01 23:01 090 0 gusting 0 10.0
2015-Apr-01 22:56 022 10.0
2015-Apr-01 22:51 045 0 gusting 0 10.0
2015-Apr-01 22:46 067 10.0
2015-Apr-01 22:41 022 0 gusting 1 10.6
2015-Apr-01 22:36 112 1 gusting 2 10.0
2015-Apr-01 22:31 090 0 gusting 0 10.0
2015-Apr-01 22:26 112 0 gusting 0 10.0
2015-Apr-01 22:21 180 10.0
2015-Apr-01 22:16 067 10.6
2015-Apr-01 22:11 135 10.6
2015-Apr-01 22:06 090 10.6
2015-Apr-01 22:01 112 10.6
2015-Apr-01 21:56 067 0 gusting 0 10.6
2015-Apr-01 21:51 045 10.6
2015-Apr-01 21:46 045 1 gusting 2 10.6
2015-Apr-01 21:41 315 0 gusting 1 10.6
2015-Apr-01 21:36 022 1 gusting 2 10.6
2015-Apr-01 21:31 10.6
2015-Apr-01 21:26 10.6
2015-Apr-01 21:21 022 1 gusting 1 10.6
2015-Apr-01 21:16 022 0 gusting 1 10.6
2015-Apr-01 21:11 022 2 gusting 2 10.6
2015-Apr-01 21:06 067 0 gusting 1 10.6
2015-Apr-01 21:01 045 0 gusting 1 10.0
2015-Apr-01 20:56 292 10.0
2015-Apr-01 20:51 067 10.6
2015-Apr-01 20:46 067 0 gusting 0 10.6
2015-Apr-01 20:41 090 10.6
2015-Apr-01 20:36 090 0 gusting 1 10.6
2015-Apr-01 20:31 022 10.6
2015-Apr-01 20:26 045 11.1
2015-Apr-01 20:21 090 1 gusting 2 11.1
2015-Apr-01 20:16 045 0 gusting 1 11.1
2015-Apr-01 20:11 045 11.1
2015-Apr-01 20:06 090 1 gusting 1 11.1
2015-Apr-01 20:01 090 1 gusting 1 11.1
2015-Apr-01 19:56 112 0 gusting 0 11.7
2015-Apr-01 19:51 045 11.7
2015-Apr-01 19:46 11.7
2015-Apr-01 19:41 045 0 gusting 2 11.7
2015-Apr-01 19:36 045 1 gusting 1 11.1
2015-Apr-01 19:31 315 11.1
2015-Apr-01 19:26 090 0 gusting 1 11.1
2015-Apr-01 19:21 022 1 gusting 1 11.1
2015-Apr-01 19:16 315 11.1
2015-Apr-01 19:11 067 11.7
2015-Apr-01 19:06 045 1 gusting 2 11.7
2015-Apr-01 19:01 067 11.7
2015-Apr-01 18:56 157 12.2
2015-Apr-01 18:51 12.2
2015-Apr-01 18:46 315 0 gusting 0 12.2
2015-Apr-01 18:41 292 1 gusting 2 12.2
2015-Apr-01 18:36 315 1 gusting 1 12.2
2015-Apr-01 18:31 292 2 gusting 3 12.2
2015-Apr-01 18:26 292 3 gusting 6 12.2
2015-Apr-01 18:21 315 0 gusting 1 12.2
2015-Apr-01 18:16 315 1 gusting 3 12.2
2015-Apr-01 18:11 112 0 gusting 1 12.8
2015-Apr-01 18:06 270 0 gusting 0 12.8
2015-Apr-01 18:01 112 0 gusting 1 12.8
2015-Apr-01 17:56 112 13.3
2015-Apr-01 17:51 090 13.3
2015-Apr-01 17:46 067 0 gusting 1 13.9
2015-Apr-01 17:41 270 3 gusting 6 13.9
2015-Apr-01 17:36 292 2 gusting 5 13.9
2015-Apr-01 17:31 315 3 gusting 6 13.9
2015-Apr-01 17:26 270 3 gusting 4 13.9
2015-Apr-01 17:21 270 2 gusting 4 13.9
2015-Apr-01 17:16 270 4 gusting 6 14.4
2015-Apr-01 17:11 247 3 gusting 5 14.4
2015-Apr-01 17:06 270 3 gusting 5 14.4
2015-Apr-01 17:01 270 4 gusting 6 14.4
2015-Apr-01 16:56 247 3 gusting 5 15.0
2015-Apr-01 16:51 315 5 gusting 7 15.0
2015-Apr-01 16:46 292 6 gusting 8 15.0
2015-Apr-01 16:41 270 4 gusting 6 15.6
2015-Apr-01 16:36 292 4 gusting 6 15.6
2015-Apr-01 16:31 045 3 gusting 6 16.1
2015-Apr-01 16:26 292 6 gusting 12 16.7
2015-Apr-01 16:21 225 4 gusting 8 16.7
2015-Apr-01 16:16 225 4 gusting 6 17.2
2015-Apr-01 16:11 270 6 gusting 8 17.8
2015-Apr-01 16:06 292 4 gusting 6 17.8
2015-Apr-01 16:01 292 4 gusting 7 17.8
2015-Apr-01 15:56 247 5 gusting 6 18.3
2015-Apr-01 15:51 315 7 gusting 13 18.3
2015-Apr-01 15:46 270 6 gusting 9 18.9
2015-Apr-01 15:41 247 6 gusting 10 18.9
2015-Apr-01 15:36 270 4 gusting 6 18.9
2015-Apr-01 15:31 292 6 gusting 9 18.9
2015-Apr-01 15:26 247 6 gusting 8 18.9
2015-Apr-01 15:21 292 8 gusting 13 19.4
2015-Apr-01 15:16 225 6 gusting 10 19.4
2015-Apr-01 15:11 247 7 gusting 13 20.0
2015-Apr-01 15:06 292 6 gusting 10 20.6
2015-Apr-01 15:01 292 6 gusting 10 20.6
2015-Apr-01 14:56 292 6 gusting 11 20.6
2015-Apr-01 14:51 270 6 gusting 11 21.1
2015-Apr-01 14:46 270 8 gusting 13 21.1
2015-Apr-01 14:41 270 5 gusting 7 21.1
2015-Apr-01 14:36 270 5 gusting 7 21.1
2015-Apr-01 14:31 270 3 gusting 4 21.1
2015-Apr-01 14:26 270 6 gusting 8 21.7
2015-Apr-01 14:21 270 5 gusting 8 22.2
2015-Apr-01 14:16 270 2 gusting 5 22.2
2015-Apr-01 14:11 225 4 gusting 6 21.7
2015-Apr-01 14:06 315 2 gusting 4 21.7
2015-Apr-01 14:01 270 5 gusting 8 21.7
2015-Apr-01 13:56 157 4 gusting 7 21.1
2015-Apr-01 13:51 225 4 gusting 7 21.7
2015-Apr-01 13:46 270 5 gusting 6 21.7
2015-Apr-01 13:41 315 5 gusting 6 21.7
2015-Apr-01 13:36 247 5 gusting 6 21.7
2015-Apr-01 13:31 247 3 gusting 4 21.7
2015-Apr-01 13:26 247 5 gusting 8 21.7
2015-Apr-01 13:21 247 3 gusting 5 21.7
2015-Apr-01 13:16 180 2 gusting 3 21.7
2015-Apr-01 13:11 225 5 gusting 6 21.7
2015-Apr-01 13:06 292 3 gusting 5 22.2
2015-Apr-01 13:01 292 3 gusting 6 22.2
2015-Apr-01 12:56 225 2 gusting 3 21.7
2015-Apr-01 12:51 270 2 gusting 4 21.7
2015-Apr-01 12:46 180 3 gusting 6 21.7
2015-Apr-01 12:41 292 3 gusting 5 21.7
2015-Apr-01 12:36 270 5 gusting 7 21.7
2015-Apr-01 12:31 315 6 gusting 10 21.1
2015-Apr-01 12:26 270 5 gusting 6 21.7
2015-Apr-01 12:21 247 3 gusting 6 21.1
2015-Apr-01 12:16 292 6 gusting 8 21.1
2015-Apr-01 12:11 270 4 gusting 6 21.1
2015-Apr-01 12:06 292 3 gusting 5 21.7
2015-Apr-01 12:01 247 6 gusting 9 21.7
2015-Apr-01 11:56 292 5 gusting 8 22.2
2015-Apr-01 11:51 202 2 gusting 6 21.7
2015-Apr-01 11:46 225 3 gusting 5 21.7
2015-Apr-01 11:41 247 6 gusting 6 21.7
2015-Apr-01 11:36 292 6 gusting 7 21.7
2015-Apr-01 11:31 270 3 gusting 6 22.2
2015-Apr-01 11:26 225 1 gusting 3 22.2
2015-Apr-01 11:21 292 5 gusting 6 22.2
2015-Apr-01 11:16 292 4 gusting 6 22.2
2015-Apr-01 11:11 225 1 gusting 5 22.2
2015-Apr-01 11:06 270 4 gusting 6 22.2
2015-Apr-01 11:01 270 4 gusting 6 22.2
2015-Apr-01 10:56 315 3 gusting 6 21.7
2015-Apr-01 10:51 247 6 gusting 7 22.2
2015-Apr-01 10:46 270 4 gusting 6 22.2
2015-Apr-01 10:41 270 3 gusting 6 22.2
2015-Apr-01 10:36 180 4 gusting 6 22.2
2015-Apr-01 10:31 247 4 gusting 5 21.7
2015-Apr-01 10:26 315 3 gusting 6 21.7
2015-Apr-01 10:21 270 1 gusting 5 21.7
2015-Apr-01 10:16 225 5 gusting 6 21.7
2015-Apr-01 10:11 157 3 gusting 5 21.1
2015-Apr-01 10:06 270 6 gusting 9 20.6
2015-Apr-01 10:01 225 4 gusting 6 20.6
2015-Apr-01 09:56 247 4 gusting 6 20.6
2015-Apr-01 09:51 270 5 gusting 6 20.6
2015-Apr-01 09:46 270 6 gusting 7 21.1
2015-Apr-01 09:41 247 3 gusting 6 21.1
2015-Apr-01 09:36 247 5 gusting 8 21.1
2015-Apr-01 09:31 247 3 gusting 5 21.1
2015-Apr-01 09:26 270 5 gusting 7 21.7
2015-Apr-01 09:21 180 3 gusting 5 21.1
2015-Apr-01 09:16 247 5 gusting 6 21.1
2015-Apr-01 09:11 247 5 gusting 6 21.7
2015-Apr-01 09:06 270 2 gusting 5 21.1
2015-Apr-01 09:01 270 5 gusting 6 21.1
2015-Apr-01 08:56 247 2 gusting 5 20.6
2015-Apr-01 08:51 270 5 gusting 6 20.6
2015-Apr-01 08:46 270 8 gusting 11 20.6
2015-Apr-01 08:41 247 5 gusting 7 20.6
2015-Apr-01 08:36 225 3 gusting 5 20.6
2015-Apr-01 08:31 225 3 gusting 5 20.6
2015-Apr-01 08:26 315 7 gusting 11 20.6
2015-Apr-01 08:21 180 5 gusting 7 20.6
2015-Apr-01 08:16 247 5 gusting 6 20.6
2015-Apr-01 08:11 315 4 gusting 6 20.6
2015-Apr-01 08:06 292 3 gusting 6 20.6
2015-Apr-01 08:01 225 1 gusting 3 19.4
2015-Apr-01 07:56 270 4 gusting 6 19.4
2015-Apr-01 07:51 315 5 gusting 6 19.4
2015-Apr-01 07:46 270 3 gusting 6 19.4
2015-Apr-01 07:41 270 4 gusting 8 20.0
2015-Apr-01 07:36 315 5 gusting 6 20.0
2015-Apr-01 07:31 270 1 gusting 2 20.0
2015-Apr-01 07:26 315 4 gusting 6 20.0
2015-Apr-01 07:21 225 3 gusting 5 20.0
2015-Apr-01 07:16 315 0 gusting 2 19.4
2015-Apr-01 07:11 225 3 gusting 4 19.4
2015-Apr-01 07:06 270 2 gusting 5 18.9
2015-Apr-01 07:01 270 2 gusting 4 18.9
2015-Apr-01 06:56 247 2 gusting 3 18.9
2015-Apr-01 06:51 292 2 gusting 4 18.9
2015-Apr-01 06:46 247 1 gusting 3 19.4
2015-Apr-01 06:41 292 2 gusting 4 19.4
2015-Apr-01 06:36 315 1 gusting 3 19.4
2015-Apr-01 06:31 315 0 gusting 1 19.4
2015-Apr-01 06:26 202 1 gusting 2 18.9
2015-Apr-01 06:21 292 0 gusting 1 18.9
2015-Apr-01 06:16 202 0 gusting 1 18.3
2015-Apr-01 06:11 180 0 gusting 1 17.2
2015-Apr-01 06:06 135 1 gusting 1 16.7
2015-Apr-01 06:01 315 1 gusting 2 17.2
2015-Apr-01 05:56 337 1 gusting 4 16.7
2015-Apr-01 05:51 090 16.1
2015-Apr-01 05:46 045 15.6
2015-Apr-01 05:41 045 0 gusting 1 15.0
2015-Apr-01 05:36 022 0 gusting 1 15.0
2015-Apr-01 05:31 14.4
2015-Apr-01 05:26 022 2 gusting 4 13.9
2015-Apr-01 05:21 090 1 gusting 2 13.3
2015-Apr-01 05:16 022 0 gusting 3 12.8
2015-Apr-01 05:11 022 2 gusting 3 12.2
2015-Apr-01 05:06 022 2 gusting 3 12.2
2015-Apr-01 05:01 090 1 gusting 2 11.7
2015-Apr-01 04:56 11.1
2015-Apr-01 04:51 337 10.6
2015-Apr-01 04:46 022 0 gusting 1 10.0
2015-Apr-01 04:41 315 1 gusting 2 9.4
2015-Apr-01 04:36 337 0 gusting 1 8.9
2015-Apr-01 04:31 270 3 gusting 5 8.9
2015-Apr-01 04:26 315 0 gusting 1 8.9
2015-Apr-01 04:21 315 1 gusting 2 8.3
2015-Apr-01 04:16 022 1 gusting 2 8.3
2015-Apr-01 04:11 315 7.8
2015-Apr-01 04:06 315 1 gusting 2 7.8
2015-Apr-01 04:01 090 7.8
2015-Apr-01 03:56 112 7.8
2015-Apr-01 03:51 067 8.3
2015-Apr-01 03:46 045 8.3
2015-Apr-01 03:41 022 0 gusting 0 8.3
2015-Apr-01 03:36 067 2 gusting 3 8.3
2015-Apr-01 03:31 022 0 gusting 1 8.3
2015-Apr-01 03:26 022 1 gusting 1 8.3
2015-Apr-01 03:21 022 8.3
2015-Apr-01 03:16 8.3
2015-Apr-01 03:11 337 0 gusting 1 8.9
2015-Apr-01 03:06 315 1 gusting 2 8.9
2015-Apr-01 03:01 8.9
2015-Apr-01 02:56 022 9.4
2015-Apr-01 02:51 315 0 gusting 0 9.4
2015-Apr-01 02:46 022 1 gusting 2 8.9
2015-Apr-01 02:41 202 2 gusting 4 8.9
2015-Apr-01 02:36 337 2 gusting 3 8.9
2015-Apr-01 02:31 045 0 gusting 1 8.3
2015-Apr-01 02:26 022 1 gusting 2 8.3
2015-Apr-01 02:21 8.3
2015-Apr-01 02:16 022 2 gusting 3 7.8
2015-Apr-01 02:11 022 0 gusting 1 7.8
2015-Apr-01 02:06 022 0 gusting 1 7.2
2015-Apr-01 02:01 7.2
2015-Apr-01 01:56 045 0 gusting 1 7.2
2015-Apr-01 01:51 315 7.8
2015-Apr-01 01:46 112 1 gusting 2 7.8
2015-Apr-01 01:41 067 0 gusting 0 7.8
2015-Apr-01 01:36 090 1 gusting 1 7.8
2015-Apr-01 01:31 090 7.8
2015-Apr-01 01:26 7.8
2015-Apr-01 01:21 045 1 gusting 1 7.8
2015-Apr-01 01:16 022 0 gusting 1 7.8
2015-Apr-01 01:11 112 7.8
2015-Apr-01 01:06 045 1 gusting 3 7.8
2015-Apr-01 01:01 247 0 gusting 1 7.8
2015-Apr-01 00:56 202 8.3
2015-Apr-01 00:51 180 8.3
2015-Apr-01 00:46 067 0 gusting 1 7.8
2015-Apr-01 00:41 090 0 gusting 1 7.8
2015-Apr-01 00:36 090 1 gusting 2 7.8
2015-Apr-01 00:31 090 7.8
2015-Apr-01 00:26 135 0 gusting 1 7.8
2015-Apr-01 00:21 090 1 gusting 1 7.8
2015-Apr-01 00:16 090 1 gusting 1 7.8
2015-Apr-01 00:11 090 0 gusting 0 7.8
2015-Apr-01 00:06 045 7.8
2015-Apr-01 00:01 045 0 gusting 0 7.8
2015-Mar-31 23:56 045 0 gusting 0 7.8
2015-Mar-31 23:51 045 0 gusting 2 7.8
2015-Mar-31 23:46 7.8
2015-Mar-31 23:41 7.8
2015-Mar-31 23:36 045 0 gusting 1 8.3
2015-Mar-31 23:31 067 0 gusting 0 7.8
2015-Mar-31 23:26 067 7.8
2015-Mar-31 23:21 067 7.8
2015-Mar-31 23:16 045 0 gusting 1 8.3
2015-Mar-31 23:11 270 8.3
2015-Mar-31 23:06 112 0 gusting 1 8.3
2015-Mar-31 23:01 180 8.3
2015-Mar-31 22:56 045 1 gusting 1 8.3
2015-Mar-31 22:51 022 1 gusting 1 7.8
2015-Mar-31 22:46 045 0 gusting 1 7.8
2015-Mar-31 22:41 090 7.8
2015-Mar-31 22:36 045 0 gusting 0 7.8
2015-Mar-31 22:31 045 7.8
2015-Mar-31 22:26 045 7.8
2015-Mar-31 22:21 045 0 gusting 0 7.8
2015-Mar-31 22:16 022 8.3
2015-Mar-31 22:11 045 8.3
2015-Mar-31 22:06 022 0 gusting 1 8.3
2015-Mar-31 22:01 045 0 gusting 0 8.3
2015-Mar-31 21:56 315 8.3
2015-Mar-31 21:51 8.3
2015-Mar-31 21:46 022 8.3
2015-Mar-31 21:41 022 0 gusting 1 8.3
2015-Mar-31 21:36 045 0 gusting 0 8.3
2015-Mar-31 21:31 090 8.3
2015-Mar-31 21:26 247 8.3
2015-Mar-31 21:21 090 8.9
2015-Mar-31 21:16 180 1 gusting 2 8.9
2015-Mar-31 21:11 022 2 gusting 3 8.9
2015-Mar-31 21:06 045 0 gusting 1 8.9
2015-Mar-31 21:01 247 8.9
2015-Mar-31 20:56 067 1 gusting 1 8.9
2015-Mar-31 20:51 270 8.9
2015-Mar-31 20:46 8.9
2015-Mar-31 20:41 090 2 gusting 2 8.9
2015-Mar-31 20:36 157 1 gusting 2 8.9
2015-Mar-31 20:31 112 1 gusting 2 8.3
2015-Mar-31 20:26 067 2 gusting 3 8.3
2015-Mar-31 20:21 292 8.3
2015-Mar-31 20:16 270 8.3
2015-Mar-31 20:11 045 1 gusting 2 8.3
2015-Mar-31 20:06 090 2 gusting 3 8.3
2015-Mar-31 20:01 067 0 gusting 1 8.3
2015-Mar-31 19:56 112 0 gusting 1 8.3
2015-Mar-31 19:51 090 0 gusting 1 8.3
2015-Mar-31 19:46 135 1 gusting 2 8.9
2015-Mar-31 19:41 090 3 gusting 4 8.9
2015-Mar-31 19:36 112 0 gusting 1 8.9
2015-Mar-31 19:31 067 0 gusting 0 8.9
2015-Mar-31 19:26 090 0 gusting 0 8.3
2015-Mar-31 19:21 090 0 gusting 1 8.3
2015-Mar-31 19:16 090 1 gusting 1 8.9
2015-Mar-31 19:11 090 8.9
2015-Mar-31 19:06 090 8.9
2015-Mar-31 19:01 067 0 gusting 1 8.9
2015-Mar-31 18:56 112 0 gusting 0 9.4
2015-Mar-31 18:51 090 0 gusting 1 9.4
2015-Mar-31 18:46 112 0 gusting 1 9.4
2015-Mar-31 18:41 067 0 gusting 0 10.0
2015-Mar-31 18:36 045 0 gusting 1 10.0
2015-Mar-31 18:31 090 10.0
2015-Mar-31 18:26 045 1 gusting 2 10.0
2015-Mar-31 18:21 112 0 gusting 1 10.6
2015-Mar-31 18:16 090 2 gusting 3 10.6
2015-Mar-31 18:11 090 1 gusting 2 10.6
2015-Mar-31 18:06 090 1 gusting 2 10.6
2015-Mar-31 18:01 067 1 gusting 3 10.6
2015-Mar-31 17:56 090 1 gusting 2 10.6
2015-Mar-31 17:51 112 1 gusting 3 11.1
2015-Mar-31 17:46 090 2 gusting 3 11.1
2015-Mar-31 17:41 112 2 gusting 3 11.1
2015-Mar-31 17:36 112 1 gusting 3 11.1
2015-Mar-31 17:31 090 1 gusting 2 11.1
2015-Mar-31 17:26 090 1 gusting 3 11.1
2015-Mar-31 17:21 090 4 gusting 5 11.1
2015-Mar-31 17:16 112 1 gusting 2 11.1
2015-Mar-31 17:11 112 1 gusting 3 11.1
2015-Mar-31 17:06 090 2 gusting 3 11.1
2015-Mar-31 17:01 090 2 gusting 5 11.7
2015-Mar-31 16:56 112 2 gusting 2 11.7
2015-Mar-31 16:51 135 1 gusting 2 12.2
2015-Mar-31 16:46 112 1 gusting 2 12.8
2015-Mar-31 16:41 112 3 gusting 6 13.3
2015-Mar-31 16:36 180 3 gusting 5 13.9
2015-Mar-31 16:31 112 2 gusting 5 14.4
2015-Mar-31 16:26 157 4 gusting 5 15.6
2015-Mar-31 16:21 135 0 gusting 1 16.1
2015-Mar-31 16:16 247 0 gusting 0 16.7
2015-Mar-31 16:11 292 2 gusting 3 16.7
2015-Mar-31 16:06 337 1 gusting 2 17.2
2015-Mar-31 16:01 315 2 gusting 3 17.2
2015-Mar-31 15:56 022 1 gusting 2 17.8
2015-Mar-31 15:51 17.8
2015-Mar-31 15:46 337 3 gusting 4 17.8
2015-Mar-31 15:41 315 4 gusting 6 17.8
2015-Mar-31 15:36 045 5 gusting 6 17.8
2015-Mar-31 15:31 315 5 gusting 8 18.3
2015-Mar-31 15:26 022 4 gusting 5 18.3
2015-Mar-31 15:21 270 2 gusting 4 18.3
2015-Mar-31 15:16 315 2 gusting 5 18.9
2015-Mar-31 15:11 292 3 gusting 6 18.9
2015-Mar-31 15:06 18.9
2015-Mar-31 15:01 045 2 gusting 3 18.9
2015-Mar-31 14:56 292 4 gusting 6 18.9
2015-Mar-31 14:51 18.9
2015-Mar-31 14:46 315 4 gusting 6 19.4
2015-Mar-31 14:41 19.4
2015-Mar-31 14:36 18.9
2015-Mar-31 14:31 180 2 gusting 4 18.9
2015-Mar-31 14:26 337 6 gusting 8 18.9
2015-Mar-31 14:21 337 4 gusting 6 18.9
2015-Mar-31 14:16 292 3 gusting 5 18.9
2015-Mar-31 14:11 045 6 gusting 10 18.9
2015-Mar-31 14:06 067 2 gusting 4 18.3
2015-Mar-31 14:01 18.3
2015-Mar-31 13:56 315 7 gusting 9 18.3
2015-Mar-31 13:51 337 8 gusting 13 18.3
2015-Mar-31 13:46 18.3
2015-Mar-31 13:41 18.3
2015-Mar-31 13:36 337 5 gusting 6 18.3
2015-Mar-31 13:31 022 8 gusting 13 18.9
2015-Mar-31 13:26 045 7 gusting 13 18.9
2015-Mar-31 13:21 315 6 gusting 11 18.9
2015-Mar-31 13:16 337 6 gusting 10 18.9
2015-Mar-31 13:11 337 4 gusting 6 18.9
2015-Mar-31 13:06 315 2 gusting 10 18.9
2015-Mar-31 13:01 18.9
2015-Mar-31 12:56 18.3
2015-Mar-31 12:51 18.3
2015-Mar-31 12:46 337 6 gusting 10 18.3
2015-Mar-31 12:41 270 4 gusting 7 17.8
2015-Mar-31 12:36 315 8 gusting 14 17.2
2015-Mar-31 12:31 022 6 gusting 10 17.2
2015-Mar-31 12:26 270 5 gusting 8 17.8
2015-Mar-31 12:21 315 4 gusting 6 18.3
2015-Mar-31 12:16 022 6 gusting 10 18.3
2015-Mar-31 12:11 045 10 gusting 15 18.9
2015-Mar-31 12:06 247 4 gusting 8 18.9
2015-Mar-31 12:01 18.3
2015-Mar-31 11:56 17.8
2015-Mar-31 11:51 090 7 gusting 11 17.8
2015-Mar-31 11:46 022 6 gusting 9 18.3
2015-Mar-31 11:41 17.8
2015-Mar-31 11:36 270 8 gusting 14 18.3
2015-Mar-31 11:31 17.8
2015-Mar-31 11:26 18.3
2015-Mar-31 11:21 337 9 gusting 15 18.3
2015-Mar-31 11:16 315 4 gusting 7 17.8
2015-Mar-31 11:11 337 6 gusting 7 17.2
2015-Mar-31 11:06 022 9 gusting 16 17.2
2015-Mar-31 11:01 022 6 gusting 10 17.2
2015-Mar-31 10:56 337 13 gusting 19 17.2
2015-Mar-31 10:51 17.2
2015-Mar-31 10:46 315 9 gusting 16 17.2
2015-Mar-31 10:41 022 11 gusting 20 17.2
2015-Mar-31 10:36 135 12 gusting 17 17.2
2015-Mar-31 10:31 045 6 gusting 14 17.2
2015-Mar-31 10:26 045 6 gusting 9 17.2
2015-Mar-31 10:21 022 6 gusting 10 17.2
2015-Mar-31 10:16 16.7
2015-Mar-31 10:11 315 7 gusting 12 16.7
2015-Mar-31 10:06 15.6
2015-Mar-31 10:01 337 7 gusting 10 15.0
2015-Mar-31 09:56 315 7 gusting 13 14.4
2015-Mar-31 09:51 14.4
2015-Mar-31 09:46 022 4 gusting 6 15.0
2015-Mar-31 09:41 270 6 gusting 10 16.1
2015-Mar-31 09:36 17.2
2015-Mar-31 09:31 315 7 gusting 12 17.2
2015-Mar-31 09:26 022 4 gusting 7 16.7
2015-Mar-31 09:21 17.2
2015-Mar-31 09:16 17.2
2015-Mar-31 09:11 17.2
2015-Mar-31 09:06 337 6 gusting 11 16.7
2015-Mar-31 09:01 022 10 gusting 14 16.7